createdAt,value
2018-11-23T00:02:31.225Z,3.10
2018-11-23T00:05:03.895Z,2.90
2018-11-23T00:07:36.504Z,2.90
2018-11-23T00:10:11.267Z,3.00
2018-11-23T00:12:43.602Z,3.20
2018-11-23T00:15:17.306Z,3.10
2018-11-23T00:17:49.773Z,3.10
2018-11-23T00:20:23.684Z,2.90
2018-11-23T00:22:56.653Z,3.20
2018-11-23T00:25:30.364Z,3.20
2018-11-23T00:28:04.385Z,3.30
2018-11-23T00:30:36.965Z,3.10
2018-11-23T00:33:09.441Z,3.20
2018-11-23T00:35:41.860Z,3.00
2018-11-23T00:38:14.450Z,3.20
2018-11-23T00:40:46.900Z,3.30
2018-11-23T00:43:19.360Z,3.20
2018-11-23T00:45:51.978Z,3.40
2018-11-23T00:48:24.458Z,3.20
2018-11-23T00:50:56.965Z,3.10
2018-11-23T00:53:29.402Z,3.10
2018-11-23T00:56:01.982Z,3.00
2018-11-23T00:58:34.409Z,3.10
2018-11-23T01:01:06.840Z,3.10
2018-11-23T01:03:39.271Z,3.20
2018-11-23T01:06:11.721Z,3.20
2018-11-23T01:08:44.247Z,3.00
2018-11-23T01:11:16.666Z,3.10
2018-11-23T01:13:49.102Z,3.20
2018-11-23T01:16:21.493Z,3.00
2018-11-23T01:18:53.889Z,2.90
2018-11-23T01:21:26.316Z,2.90
2018-11-23T01:23:58.693Z,3.00
2018-11-23T01:26:31.119Z,3.10
2018-11-23T01:29:03.588Z,3.20
2018-11-23T01:31:36.030Z,3.20
2018-11-23T01:34:08.454Z,3.10
2018-11-23T01:36:41.220Z,3.20
2018-11-23T01:39:13.652Z,2.90
2018-11-23T01:41:46.128Z,3.10
2018-11-23T01:44:18.538Z,3.20
2018-11-23T01:46:51.038Z,3.10
2018-11-23T01:49:23.488Z,3.30
2018-11-23T01:51:56.067Z,3.40
2018-11-23T01:54:28.470Z,3.30
2018-11-23T01:57:00.978Z,3.10
2018-11-23T01:59:33.492Z,3.20
2018-11-23T02:02:06.070Z,3.00
2018-11-23T02:04:38.520Z,3.10
2018-11-23T02:07:10.914Z,3.10
2018-11-23T02:09:43.379Z,3.20
2018-11-23T02:12:15.889Z,3.20
2018-11-23T02:14:48.298Z,3.20
2018-11-23T02:17:22.863Z,3.10
2018-11-23T02:19:56.417Z,3.20
2018-11-23T02:22:28.814Z,3.10
2018-11-23T02:25:01.286Z,3.00
2018-11-23T02:27:33.764Z,3.00
2018-11-23T02:30:13.138Z,3.00
2018-11-23T02:32:45.608Z,3.10
2018-11-23T02:35:18.320Z,3.10
2018-11-23T02:37:50.756Z,3.00
2018-11-23T02:40:23.178Z,3.10
2018-11-23T02:42:55.584Z,3.00
2018-11-23T02:45:28.057Z,2.90
2018-11-23T02:48:00.549Z,2.80
2018-11-23T02:50:33.115Z,2.90
2018-11-23T02:53:05.536Z,3.00
2018-11-23T02:55:37.990Z,3.00
2018-11-23T02:58:10.406Z,3.10
2018-11-23T03:00:42.898Z,3.20
2018-11-23T03:03:15.331Z,3.00
2018-11-23T03:05:47.758Z,2.90
2018-11-23T03:08:20.155Z,3.10
2018-11-23T03:10:52.646Z,3.10
2018-11-23T03:13:25.115Z,2.90
2018-11-23T03:15:57.566Z,3.10
2018-11-23T03:18:29.963Z,3.10
2018-11-23T03:21:02.392Z,3.20
2018-11-23T03:23:34.811Z,3.10
2018-11-23T03:26:07.238Z,3.10
2018-11-23T03:28:39.634Z,3.00
2018-11-23T03:31:12.787Z,3.10
2018-11-23T03:33:44.882Z,3.30
2018-11-23T03:36:17.388Z,3.30
2018-11-23T03:38:50.104Z,3.10
2018-11-23T03:41:22.555Z,3.20
2018-11-23T03:43:54.988Z,3.30
2018-11-23T03:46:27.466Z,3.20
2018-11-23T03:48:59.838Z,3.20
2018-11-23T03:51:32.381Z,3.00
2018-11-23T03:54:05.198Z,3.10
2018-11-23T03:56:37.694Z,3.10
2018-11-23T03:59:10.152Z,3.20
2018-11-23T04:01:42.605Z,3.20
2018-11-23T04:04:15.048Z,3.20
2018-11-23T04:06:47.498Z,3.10
2018-11-23T04:09:19.916Z,3.00
2018-11-23T04:11:52.442Z,3.00
2018-11-23T04:14:24.902Z,3.10
2018-11-23T04:16:57.330Z,3.10
2018-11-23T04:19:29.758Z,3.10
2018-11-23T04:22:02.409Z,3.10
2018-11-23T04:24:34.775Z,3.10
2018-11-23T04:27:07.190Z,3.30
2018-11-23T04:29:39.626Z,3.20
2018-11-23T04:32:12.540Z,3.10
2018-11-23T04:34:44.951Z,3.10
2018-11-23T04:37:17.352Z,3.20
2018-11-23T04:39:50.031Z,3.10
2018-11-23T04:42:22.435Z,3.20
2018-11-23T04:44:54.843Z,3.10
2018-11-23T04:47:27.615Z,3.10
2018-11-23T04:50:01.295Z,3.30
2018-11-23T04:52:33.845Z,3.40
2018-11-23T04:55:06.937Z,3.30
2018-11-23T04:57:39.399Z,3.30
2018-11-23T05:00:13.770Z,3.30
2018-11-23T05:02:46.965Z,3.10
2018-11-23T05:05:19.443Z,3.00
2018-11-23T05:07:51.862Z,3.10
2018-11-23T05:10:24.308Z,3.10
2018-11-23T05:12:56.788Z,3.10
2018-11-23T05:15:29.260Z,3.10
2018-11-23T05:18:01.758Z,3.20
2018-11-23T05:20:34.492Z,3.10
2018-11-23T05:23:06.989Z,3.10
2018-11-23T05:25:39.451Z,3.10
2018-11-23T05:28:11.963Z,3.00
2018-11-23T05:30:44.444Z,3.20
2018-11-23T05:33:16.952Z,3.00
2018-11-23T05:35:49.439Z,3.20
2018-11-23T05:38:21.856Z,3.10
2018-11-23T05:40:54.306Z,3.10
2018-11-23T05:43:26.968Z,3.10
2018-11-23T05:46:00.668Z,3.30
2018-11-23T05:48:33.131Z,3.30
2018-11-23T05:51:06.188Z,3.00
2018-11-23T05:53:38.745Z,3.00
2018-11-23T05:56:11.377Z,3.20
2018-11-23T05:58:43.796Z,3.10
2018-11-23T06:01:16.294Z,3.20
2018-11-23T06:03:48.841Z,3.20
2018-11-23T06:06:21.298Z,3.10
2018-11-23T06:08:53.759Z,3.10
2018-11-23T06:11:26.591Z,3.30
2018-11-23T06:13:59.238Z,3.50
2018-11-23T06:16:31.989Z,3.60
2018-11-23T06:19:04.618Z,3.20
2018-11-23T06:21:37.195Z,3.30
2018-11-23T06:24:10.018Z,3.30
2018-11-23T06:26:42.748Z,3.20
2018-11-23T06:29:15.211Z,3.10
2018-11-23T06:31:47.755Z,3.20
2018-11-23T06:34:21.579Z,3.20
2018-11-23T06:36:54.111Z,3.50
2018-11-23T06:39:26.655Z,3.40
2018-11-23T06:41:59.113Z,3.40
2018-11-23T06:44:31.597Z,3.30
2018-11-23T06:47:04.314Z,3.40
2018-11-23T06:49:36.735Z,3.40
2018-11-23T06:52:09.392Z,3.50
2018-11-23T06:54:41.915Z,3.40
2018-11-23T06:57:14.396Z,3.40
2018-11-23T06:59:46.856Z,3.40
2018-11-23T07:02:19.287Z,3.40
2018-11-23T07:04:51.727Z,3.50
2018-11-23T07:07:24.308Z,3.50
2018-11-23T07:09:56.722Z,3.80
2018-11-23T07:12:29.402Z,3.70
2018-11-23T07:15:01.932Z,3.70
2018-11-23T07:17:34.435Z,3.90
2018-11-23T07:20:08.732Z,3.80
2018-11-23T07:22:41.582Z,4.00
2018-11-23T07:25:14.883Z,3.60
2018-11-23T07:27:47.531Z,3.80
2018-11-23T07:30:21.472Z,4.20
2018-11-23T07:32:54.008Z,4.20
2018-11-23T07:35:26.515Z,4.30
2018-11-23T07:37:59.021Z,4.50
2018-11-23T07:40:45.363Z,4.60
2018-11-23T07:43:17.866Z,4.50
2018-11-23T07:45:50.332Z,4.70
2018-11-23T07:48:22.805Z,4.30
2018-11-23T07:50:55.814Z,4.10
2018-11-23T07:53:27.859Z,4.00
2018-11-23T07:56:00.435Z,4.00
2018-11-23T07:58:33.027Z,4.00
2018-11-23T08:01:05.572Z,4.00
2018-11-23T08:03:38.363Z,4.00
2018-11-23T08:06:10.910Z,4.00
2018-11-23T08:08:43.398Z,4.00
2018-11-23T08:11:15.921Z,3.80
2018-11-23T08:13:48.399Z,4.10
2018-11-23T08:16:21.017Z,4.20
2018-11-23T08:18:53.647Z,4.20
2018-11-23T08:21:26.167Z,4.10
2018-11-23T08:23:58.686Z,4.00
2018-11-23T08:26:31.537Z,4.20
2018-11-23T08:29:04.325Z,4.10
2018-11-23T08:31:37.075Z,4.40
2018-11-23T08:34:09.512Z,4.40
2018-11-23T08:36:42.125Z,4.20
2018-11-23T08:39:14.647Z,4.30
2018-11-23T08:41:47.107Z,4.50
2018-11-23T08:44:19.631Z,4.30
2018-11-23T08:46:52.251Z,4.30
2018-11-23T08:49:24.671Z,4.20
2018-11-23T08:51:57.276Z,4.40
2018-11-23T08:54:29.967Z,4.40
2018-11-23T08:57:03.247Z,4.30
2018-11-23T08:59:36.182Z,4.20
2018-11-23T09:02:08.787Z,4.30
2018-11-23T09:04:41.588Z,4.20
2018-11-23T09:07:14.506Z,4.30
2018-11-23T09:09:47.140Z,4.30
2018-11-23T09:12:19.623Z,4.40
2018-11-23T09:14:52.242Z,4.40
2018-11-23T09:17:25.071Z,4.30
2018-11-23T09:19:57.698Z,4.60
2018-11-23T09:22:30.768Z,4.40
2018-11-23T09:25:03.644Z,4.40
2018-11-23T09:27:36.648Z,4.40
2018-11-23T09:30:17.934Z,4.40
2018-11-23T09:32:51.239Z,4.60
2018-11-23T09:35:23.987Z,4.60
2018-11-23T09:37:56.468Z,4.70
2018-11-23T09:40:29.885Z,4.50
2018-11-23T09:43:02.796Z,4.40
2018-11-23T09:45:35.387Z,4.50
2018-11-23T09:48:08.163Z,4.30
2018-11-23T09:50:40.659Z,4.40
2018-11-23T09:53:13.121Z,4.60
2018-11-23T09:55:45.550Z,4.30
2018-11-23T09:58:18.166Z,4.30
2018-11-23T10:00:51.123Z,4.20
2018-11-23T10:03:23.623Z,4.40
2018-11-23T10:05:56.046Z,4.40
2018-11-23T10:08:28.500Z,4.60
2018-11-23T10:11:02.203Z,4.50
2018-11-23T10:13:34.718Z,4.50
2018-11-23T10:16:07.170Z,4.60
2018-11-23T10:18:39.734Z,4.50
2018-11-23T10:21:12.253Z,4.50
2018-11-23T10:23:44.835Z,4.50
2018-11-23T10:26:17.537Z,4.60
2018-11-23T10:28:50.059Z,4.50
2018-11-23T10:31:22.640Z,4.70
2018-11-23T10:33:55.127Z,4.70
2018-11-23T10:36:27.575Z,4.60
2018-11-23T10:39:00.216Z,4.70
2018-11-23T10:41:32.812Z,4.80
2018-11-23T10:44:05.233Z,4.80
2018-11-23T10:49:10.413Z,4.90
2018-11-23T10:51:42.963Z,4.80
2018-11-23T10:54:15.487Z,4.80
2018-11-23T10:56:48.078Z,4.90
2018-11-23T10:59:20.684Z,4.80
2018-11-23T11:01:58.832Z,4.60
2018-11-23T11:04:36.854Z,4.60
2018-11-23T11:07:09.951Z,4.70
2018-11-23T11:09:42.478Z,4.70
2018-11-23T11:12:15.092Z,4.60
2018-11-23T11:14:47.538Z,4.50
2018-11-23T11:17:20.083Z,4.60
2018-11-23T11:19:54.021Z,4.60
2018-11-23T11:22:26.956Z,4.60
2018-11-23T11:24:59.583Z,4.70
2018-11-23T11:27:32.082Z,4.60
2018-11-23T11:30:07.606Z,4.70
2018-11-23T11:32:40.279Z,4.70
2018-11-23T11:35:13.122Z,4.70
2018-11-23T11:37:45.750Z,4.70
2018-11-23T11:40:19.510Z,4.80
2018-11-23T11:42:52.094Z,4.90
2018-11-23T11:45:24.590Z,4.90
2018-11-23T11:47:57.062Z,4.90
2018-11-23T11:50:29.575Z,5.00
2018-11-23T11:53:02.432Z,5.00
2018-11-23T11:55:34.915Z,4.90
2018-11-23T11:58:07.418Z,4.90
2018-11-23T12:00:40.464Z,4.80
2018-11-23T12:03:13.892Z,4.80
2018-11-23T12:05:46.770Z,4.70
2018-11-23T12:08:19.591Z,4.60
2018-11-23T12:10:52.256Z,4.70
2018-11-23T12:13:24.819Z,4.60
2018-11-23T12:15:57.310Z,4.70
2018-11-23T12:18:29.966Z,4.60
2018-11-23T12:21:02.628Z,4.70
2018-11-23T12:23:35.130Z,4.80
2018-11-23T12:26:07.617Z,4.80
2018-11-23T12:28:40.164Z,4.90
2018-11-23T12:31:12.649Z,4.90
2018-11-23T12:33:45.476Z,5.10
2018-11-23T12:36:19.497Z,4.90
2018-11-23T12:38:52.729Z,4.70
2018-11-23T12:41:25.433Z,4.90
2018-11-23T12:43:57.975Z,4.90
2018-11-23T12:46:30.805Z,4.90
2018-11-23T12:49:05.389Z,4.80
2018-11-23T12:51:38.026Z,4.90
2018-11-23T12:54:10.497Z,4.90
2018-11-23T12:56:42.960Z,5.10
2018-11-23T12:59:15.471Z,5.10
2018-11-23T13:01:48.264Z,5.10
2018-11-23T13:04:20.893Z,5.10
2018-11-23T13:06:53.433Z,4.90
2018-11-23T13:09:25.935Z,5.00
2018-11-23T13:11:58.514Z,5.30
2018-11-23T13:14:31.171Z,5.10
2018-11-23T13:17:03.663Z,5.10
2018-11-23T13:19:36.689Z,5.10
2018-11-23T13:22:09.683Z,5.10
2018-11-23T13:24:42.440Z,5.00
2018-11-23T13:27:16.605Z,4.90
2018-11-23T13:29:49.244Z,5.10
2018-11-23T13:32:21.711Z,5.00
2018-11-23T13:34:54.337Z,4.80
2018-11-23T13:37:26.844Z,4.90
2018-11-23T13:39:59.555Z,5.20
2018-11-23T13:42:33.159Z,5.20
2018-11-23T13:45:07.152Z,5.10
2018-11-23T13:47:39.735Z,5.10
2018-11-23T13:50:14.578Z,5.00
2018-11-23T13:52:47.908Z,5.20
2018-11-23T13:55:20.432Z,5.20
2018-11-23T13:57:53.250Z,5.20
2018-11-23T14:00:27.048Z,5.20
2018-11-23T14:02:59.638Z,5.30
2018-11-23T14:05:32.579Z,4.90
2018-11-23T14:08:05.409Z,5.10
2018-11-23T14:10:37.873Z,5.10
2018-11-23T14:13:11.590Z,5.10
2018-11-23T14:15:42.939Z,5.20
2018-11-23T14:18:15.602Z,5.00
2018-11-23T14:20:48.097Z,5.30
2018-11-23T14:23:20.689Z,5.40
2018-11-23T14:25:53.133Z,5.70
2018-11-23T14:28:25.594Z,5.70
2018-11-23T14:30:58.067Z,5.40
2018-11-23T14:33:30.699Z,5.30
2018-11-23T14:36:03.328Z,5.10
2018-11-23T14:38:35.808Z,5.10
2018-11-23T14:41:08.255Z,4.90
2018-11-23T14:43:41.007Z,5.10
2018-11-23T14:46:13.586Z,5.00
2018-11-23T14:48:46.081Z,5.10
2018-11-23T14:51:18.634Z,5.00
2018-11-23T14:53:51.110Z,5.10
2018-11-23T14:56:23.743Z,5.30
2018-11-23T14:58:56.260Z,5.30
2018-11-23T15:01:28.753Z,5.40
2018-11-23T15:04:01.467Z,5.40
2018-11-23T15:06:33.959Z,5.30
2018-11-23T15:09:08.400Z,5.40
2018-11-23T15:11:41.040Z,5.40
2018-11-23T15:14:13.683Z,5.20
2018-11-23T15:16:46.169Z,5.20
2018-11-23T15:19:18.790Z,5.10
2018-11-23T15:21:51.259Z,5.00
2018-11-23T15:24:27.739Z,5.10
2018-11-23T15:27:00.327Z,5.30
2018-11-23T15:29:32.744Z,5.20
2018-11-23T15:32:05.550Z,5.10
2018-11-23T15:34:38.042Z,5.30
2018-11-23T15:37:10.518Z,5.20
2018-11-23T15:39:42.944Z,5.30
2018-11-23T15:42:15.555Z,5.10
2018-11-23T15:44:48.171Z,5.10
2018-11-23T15:47:20.739Z,5.20
2018-11-23T15:49:53.441Z,5.10
2018-11-23T15:52:26.100Z,5.20
2018-11-23T15:54:58.613Z,5.20
2018-11-23T15:57:31.151Z,5.30
2018-11-23T16:00:04.859Z,5.40
2018-11-23T16:02:37.379Z,5.50
2018-11-23T16:05:10.837Z,5.50
2018-11-23T16:07:43.807Z,5.50
2018-11-23T16:10:18.724Z,5.50
2018-11-23T16:12:52.494Z,5.40
2018-11-23T16:15:25.723Z,5.30
2018-11-23T16:17:58.962Z,5.30
2018-11-23T16:20:33.711Z,5.20
2018-11-23T16:23:07.925Z,5.40
2018-11-23T16:25:40.990Z,5.50
2018-11-23T16:28:13.758Z,5.50
2018-11-23T16:30:47.789Z,5.50
2018-11-23T16:33:22.528Z,5.60
2018-11-23T16:35:54.973Z,5.50
2018-11-23T16:38:27.483Z,5.40
2018-11-23T16:41:00.032Z,5.30
2018-11-23T16:43:32.478Z,5.20
2018-11-23T16:46:05.674Z,5.30
2018-11-23T16:48:38.128Z,5.40
2018-11-23T16:51:10.640Z,5.50
2018-11-23T16:53:43.435Z,5.30
2018-11-23T16:56:15.855Z,5.50
2018-11-23T16:58:49.121Z,5.50
2018-11-23T17:01:21.585Z,5.30
2018-11-23T17:03:53.987Z,5.50
2018-11-23T17:06:26.641Z,5.40
2018-11-23T17:08:59.798Z,5.50
2018-11-23T17:11:32.488Z,5.60
2018-11-23T17:14:04.951Z,5.60
2018-11-23T17:16:38.290Z,5.50
2018-11-23T17:19:10.754Z,5.60
2018-11-23T17:21:43.464Z,5.50
2018-11-23T17:24:16.164Z,5.60
2018-11-23T17:26:50.611Z,5.40
2018-11-23T17:29:23.362Z,5.40
2018-11-23T17:31:55.786Z,5.60
2018-11-23T17:34:28.443Z,5.60
2018-11-23T17:37:00.924Z,5.50
2018-11-23T17:39:33.487Z,5.60
2018-11-23T17:42:05.949Z,5.70
2018-11-23T17:44:38.420Z,5.90
2018-11-23T17:49:44.875Z,6.10
2018-11-23T17:54:50.327Z,5.70
2018-11-23T17:57:22.941Z,5.80
2018-11-23T17:59:55.356Z,5.60
2018-11-23T18:02:29.203Z,5.40
2018-11-23T18:05:07.264Z,5.40
2018-11-23T18:07:34.603Z,5.40
2018-11-23T18:10:12.451Z,5.60
2018-11-23T18:12:45.433Z,5.50
2018-11-23T18:15:20.624Z,5.70
2018-11-23T18:17:55.614Z,5.70
2018-11-23T18:20:28.877Z,5.60
2018-11-23T18:23:01.916Z,5.50
2018-11-23T18:25:36.139Z,5.50
2018-11-23T18:28:08.736Z,5.50
2018-11-23T18:30:41.220Z,5.70
2018-11-23T18:33:13.678Z,5.60
2018-11-23T18:35:46.427Z,5.50
2018-11-23T18:38:19.242Z,5.50
2018-11-23T18:40:51.863Z,5.40
2018-11-23T18:43:24.536Z,5.70
2018-11-23T18:45:56.966Z,5.60
2018-11-23T18:48:29.822Z,5.70
2018-11-23T18:51:02.328Z,5.80
2018-11-23T18:53:34.861Z,5.80
2018-11-23T18:56:07.272Z,5.70
2018-11-23T18:58:39.913Z,5.80
2018-11-23T19:01:17.816Z,5.80
2018-11-23T19:03:50.638Z,5.70
2018-11-23T19:06:23.341Z,5.60
2018-11-23T19:08:56.123Z,5.70
2018-11-23T19:11:28.940Z,5.80
2018-11-23T19:14:01.357Z,5.90
2018-11-23T19:16:33.956Z,5.80
2018-11-23T19:19:06.477Z,5.70
2018-11-23T19:21:39.121Z,5.80
2018-11-23T19:24:11.604Z,5.70
2018-11-23T19:26:44.384Z,5.70
2018-11-23T19:29:17.007Z,5.70
2018-11-23T19:31:49.831Z,5.70
2018-11-23T19:34:22.334Z,5.70
2018-11-23T19:36:54.776Z,5.90
2018-11-23T19:39:27.338Z,5.70
2018-11-23T19:41:59.776Z,5.70
2018-11-23T19:44:32.303Z,5.90
2018-11-23T19:47:04.829Z,5.70
2018-11-23T19:49:38.585Z,5.70
2018-11-23T19:52:11.014Z,5.60
2018-11-23T19:54:43.537Z,5.60
2018-11-23T19:57:16.179Z,5.80
2018-11-23T19:59:48.835Z,5.90
2018-11-23T20:02:21.360Z,5.90
2018-11-23T20:04:53.999Z,5.90
2018-11-23T20:07:26.423Z,5.80
2018-11-23T20:09:58.933Z,5.70
2018-11-23T20:12:31.538Z,5.70
2018-11-23T20:15:05.286Z,5.80
2018-11-23T20:17:41.490Z,5.60
2018-11-23T20:20:11.726Z,5.70
2018-11-23T20:22:44.872Z,5.70
2018-11-23T20:25:18.431Z,5.60
2018-11-23T20:27:51.898Z,5.60
2018-11-23T20:30:24.899Z,5.80
2018-11-23T20:32:57.446Z,5.90
2018-11-23T20:35:30.286Z,5.50
2018-11-23T20:38:02.796Z,5.70
2018-11-23T20:40:35.375Z,5.60
2018-11-23T20:43:08.084Z,5.70
2018-11-23T20:45:40.814Z,5.70
2018-11-23T20:48:13.302Z,5.60
2018-11-23T20:50:45.993Z,5.70
2018-11-23T20:53:18.431Z,5.80
2018-11-23T20:55:50.911Z,5.60
2018-11-23T20:58:23.460Z,5.70
2018-11-23T21:00:55.883Z,5.80
2018-11-23T21:03:28.479Z,5.70
2018-11-23T21:06:01.110Z,5.60
2018-11-23T21:08:33.772Z,5.60
2018-11-23T21:11:07.221Z,5.60
2018-11-23T21:13:39.847Z,5.80
2018-11-23T21:16:12.265Z,5.90
2018-11-23T21:18:45.189Z,5.80
2018-11-23T21:21:17.592Z,5.70
2018-11-23T21:23:50.151Z,5.40
2018-11-23T21:26:22.595Z,5.60
2018-11-23T21:28:55.259Z,5.70
2018-11-23T21:31:28.507Z,5.70
2018-11-23T21:34:00.995Z,5.60
2018-11-23T21:36:33.413Z,5.40
2018-11-23T21:39:13.526Z,5.50
2018-11-23T21:41:40.808Z,5.60
2018-11-23T21:44:13.556Z,5.60
2018-11-23T21:46:45.979Z,5.70
2018-11-23T21:49:18.476Z,5.70
2018-11-23T21:51:51.108Z,5.40
2018-11-23T21:54:23.567Z,5.60
2018-11-23T21:56:56.074Z,5.60
2018-11-23T21:59:28.520Z,5.50
2018-11-23T22:02:06.993Z,5.40
2018-11-23T22:04:33.976Z,5.60
2018-11-23T22:07:06.590Z,5.40
2018-11-23T22:09:39.188Z,5.50
2018-11-23T22:12:11.849Z,5.50
2018-11-23T22:14:44.324Z,5.50
2018-11-23T22:17:16.772Z,5.50
2018-11-23T22:19:49.369Z,5.50
2018-11-23T22:22:21.823Z,5.50
2018-11-23T22:24:54.282Z,5.50
2018-11-23T22:27:26.964Z,5.40
2018-11-23T22:29:59.407Z,5.40
2018-11-23T22:35:06.138Z,5.30
2018-11-23T22:37:38.699Z,5.30
2018-11-23T22:40:13.195Z,5.00
2018-11-23T22:42:46.983Z,5.00
2018-11-23T22:45:19.472Z,5.20
2018-11-23T22:47:51.938Z,5.10
2018-11-23T22:50:24.641Z,5.10
2018-11-23T22:52:58.146Z,5.00
2018-11-23T22:55:30.632Z,5.00
2018-11-23T22:58:03.155Z,4.90
2018-11-23T23:00:37.703Z,4.90
2018-11-23T23:03:10.308Z,4.90
2018-11-23T23:05:42.784Z,5.00
2018-11-23T23:08:15.273Z,5.00
2018-11-23T23:10:47.699Z,5.00
2018-11-23T23:13:20.227Z,4.80
2018-11-23T23:15:52.641Z,4.80
2018-11-23T23:18:25.211Z,4.90
2018-11-23T23:20:57.646Z,5.00
2018-11-23T23:23:30.122Z,4.80
2018-11-23T23:26:02.679Z,4.80
2018-11-23T23:28:35.202Z,4.80
2018-11-23T23:31:07.650Z,4.60
2018-11-23T23:33:40.504Z,4.60
2018-11-23T23:36:12.897Z,4.60
2018-11-23T23:38:45.383Z,4.70
2018-11-23T23:41:17.833Z,4.60
2018-11-23T23:43:50.296Z,4.60
2018-11-23T23:46:22.755Z,4.60
2018-11-23T23:48:55.150Z,4.60
2018-11-23T23:51:27.603Z,4.60
2018-11-23T23:54:00.093Z,4.50
2018-11-23T23:56:32.650Z,4.50
2018-11-23T23:59:05.296Z,4.40
